Time;durP1;ratioP1;P1;durP2;ratioP2;P2;SDS_P1;SDS_P2;PMS_P1;PMS_P2;Temp;Humidity;BMP_temperature;BMP_pressure;BME280_temperature;BME280_humidity;BME280_pressure;Samples;Min_cycle;Max_cycle;Signal;HPM_P1;HPM_P2
2023/01/06 00:01:36;;;;;;;0.60;0.50;;;17.50;99.90;;;;;;5077351;28;20176;-70
2023/01/06 00:04:04;;;;;;;2.00;0.70;;;17.50;99.90;;;;;;5081201;28;20589;-70
2023/01/06 00:06:33;;;;;;;0.40;0.40;;;17.50;99.90;;;;;;5082416;28;20314;-69
2023/01/06 00:09:03;;;;;;;0.80;0.60;;;17.40;99.90;;;;;;5078733;28;20656;-70
2023/01/06 00:11:32;;;;;;;1.93;0.70;;;17.40;99.90;;;;;;5079212;28;20220;-70
2023/01/06 00:14:00;;;;;;;3.83;0.70;;;17.40;99.90;;;;;;5071907;28;20172;-70
2023/01/06 00:16:28;;;;;;;1.13;0.60;;;17.30;99.90;;;;;;5071488;28;20242;-71
2023/01/06 00:18:57;;;;;;;1.00;0.50;;;17.30;99.90;;;;;;5086985;28;20191;-71
2023/01/06 00:21:25;;;;;;;2.83;0.50;;;17.30;99.90;;;;;;5071579;28;20187;-71
2023/01/06 00:23:53;;;;;;;2.00;0.50;;;17.30;99.90;;;;;;5071121;28;20172;-72
2023/01/06 00:26:22;;;;;;;0.60;0.40;;;17.40;99.90;;;;;;5071409;28;20187;-71
2023/01/06 00:28:53;;;;;;;1.80;0.60;;;17.40;99.90;;;;;;5071413;28;20172;-72
2023/01/06 00:31:22;;;;;;;1.13;0.50;;;17.50;99.90;;;;;;5078585;28;20183;-70
2023/01/06 00:33:50;;;;;;;2.90;0.57;;;17.40;99.90;;;;;;5091604;28;20653;-72
2023/01/06 00:36:20;;;;;;;2.23;0.60;;;17.50;99.90;;;;;;5090417;28;20183;-73
2023/01/06 00:38:50;;;;;;;2.10;0.50;;;17.30;99.90;;;;;;5079386;28;20207;-70
2023/01/06 00:44:04;;;;;;;1.57;0.60;;;17.40;99.90;;;;;;5081188;28;20250;-69
2023/01/06 00:46:33;;;;;;;0.63;0.50;;;17.50;99.90;;;;;;5072667;28;20576;-70
2023/01/06 00:49:05;;;;;;;1.43;0.60;;;17.50;99.90;;;;;;5071256;28;20268;-70
2023/01/06 00:51:34;;;;;;;0.97;0.60;;;17.60;99.90;;;;;;5069738;28;20192;-70
2023/01/06 00:54:02;;;;;;;2.40;0.50;;;17.60;99.90;;;;;;5071238;28;20180;-69
2023/01/06 00:56:30;;;;;;;1.23;0.60;;;17.60;99.90;;;;;;5071156;28;20182;-71
2023/01/06 00:58:58;;;;;;;0.97;0.67;;;17.70;99.90;;;;;;5077505;28;20183;-71
2023/01/06 01:01:26;;;;;;;1.40;0.90;;;17.80;99.90;;;;;;5094009;28;20175;-72
2023/01/06 01:03:54;;;;;;;2.53;0.80;;;17.90;99.90;;;;;;5095385;28;20229;-71
2023/01/06 01:06:22;;;;;;;0.93;0.70;;;18.00;99.90;;;;;;5094857;28;20179;-73
2023/01/06 01:08:57;;;;;;;1.70;0.83;;;18.00;99.90;;;;;;5095815;28;20190;-75
2023/01/06 01:14:13;;;;;;;0.87;0.63;;;18.20;99.90;;;;;;5077135;28;20542;-75
2023/01/06 01:16:41;;;;;;;1.03;0.60;;;18.40;99.90;;;;;;5084002;28;20592;-70
2023/01/06 01:19:10;;;;;;;0.93;0.50;;;18.30;99.90;;;;;;5084661;28;20197;-71
2023/01/06 01:21:38;;;;;;;2.10;0.70;;;18.40;99.90;;;;;;5076266;28;20187;-70
2023/01/06 01:24:06;;;;;;;1.57;0.80;;;18.40;99.90;;;;;;5085944;28;20692;-74
2023/01/06 01:26:34;;;;;;;2.33;0.67;;;18.50;99.90;;;;;;5074698;28;20240;-70
2023/01/06 01:29:02;;;;;;;2.90;1.00;;;18.50;99.90;;;;;;5087344;28;20262;-70
2023/01/06 01:31:30;;;;;;;1.13;0.70;;;19.10;99.90;;;;;;5094884;28;20178;-71
2023/01/06 01:34:01;;;;;;;1.87;0.93;;;19.30;99.90;;;;;;5094689;28;20187;-70
2023/01/06 01:36:29;;;;;;;1.67;0.60;;;19.30;99.90;;;;;;5094176;28;20194;-71
2023/01/06 01:38:58;;;;;;;4.90;0.90;;;19.20;99.90;;;;;;5093586;28;20198;-70
2023/01/06 01:41:28;;;;;;;5.73;0.80;;;19.20;99.90;;;;;;5077973;28;20529;-70
2023/01/06 01:44:16;;;;;;;1.70;0.87;;;19.20;99.90;;;;;;5084915;28;20534;-72
2023/01/06 01:46:44;;;;;;;3.07;0.77;;;19.30;99.90;;;;;;5089510;28;20282;-71
2023/01/06 01:49:24;;;;;;;2.30;0.83;;;19.40;99.90;;;;;;5074254;28;20265;-73
2023/01/06 01:51:55;;;;;;;5.57;1.10;;;19.20;99.90;;;;;;5073826;28;20245;-74
2023/01/06 01:54:28;;;;;;;4.90;1.30;;;19.10;99.90;;;;;;5075200;28;20208;-72
2023/01/06 01:57:02;;;;;;;2.47;1.03;;;19.20;99.90;;;;;;5090673;28;20216;-72
2023/01/06 01:59:33;;;;;;;4.23;1.10;;;19.10;99.90;;;;;;5073657;28;20183;-72
2023/01/06 02:02:01;;;;;;;3.47;1.10;;;19.10;99.90;;;;;;5074020;28;20191;-73
2023/01/06 02:04:30;;;;;;;4.17;1.40;;;19.00;99.90;;;;;;5073780;28;20185;-74
2023/01/06 02:06:58;;;;;;;3.60;1.33;;;19.20;99.90;;;;;;5072080;28;20210;-73
2023/01/06 02:09:50;;;;;;;3.67;0.90;;;19.30;99.90;;;;;;5072989;28;20187;-72
2023/01/06 02:12:18;;;;;;;2.20;1.10;;;19.30;99.90;;;;;;5081065;28;20231;-72
2023/01/06 02:14:50;;;;;;;1.57;0.83;;;19.30;99.90;;;;;;5074865;28;20199;-70
2023/01/06 02:17:58;;;;;;;4.10;1.60;;;19.20;99.90;;;;;;5091769;28;20680;-72
2023/01/06 02:20:48;;;;;;;1.93;0.80;;;19.40;99.90;;;;;;5078645;28;20174;-71
2023/01/06 02:23:15;;;;;;;1.87;0.60;;;19.40;99.90;;;;;;5092416;28;20182;-72
2023/01/06 02:25:55;;;;;;;2.27;0.70;;;19.50;99.90;;;;;;5092615;28;20640;-71
2023/01/06 02:28:32;;;;;;;3.90;0.80;;;19.40;99.90;;;;;;5082170;28;20180;-71
2023/01/06 02:31:35;;;;;;;3.03;0.90;;;19.30;99.90;;;;;;5093130;28;20203;-72
2023/01/06 02:34:26;;;;;;;1.13;0.73;;;19.30;99.90;;;;;;5082324;28;20607;-71
2023/01/06 02:37:00;;;;;;;1.70;0.60;;;19.50;99.90;;;;;;5074270;28;20226;-74
2023/01/06 02:39:42;;;;;;;2.83;1.57;;;19.60;99.90;;;;;;5087881;28;20188;-73
2023/01/06 02:42:36;;;;;;;2.80;0.70;;;19.70;99.90;;;;;;5073207;28;20180;-71
2023/01/06 02:45:40;;;;;;;3.07;0.97;;;20.20;99.90;;;;;;5092587;28;20220;-71
2023/01/06 02:48:44;;;;;;;3.70;0.60;;;20.00;99.90;;;;;;5092915;28;20171;-70
2023/01/06 02:51:31;;;;;;;1.17;0.70;;;19.70;99.90;;;;;;5035813;28;20265;-71
2023/01/06 02:54:12;;;;;;;2.90;0.70;;;19.60;99.90;;;;;;5074195;28;20294;-72
2023/01/06 02:56:45;;;;;;;3.00;0.70;;;19.80;99.90;;;;;;5080591;28;20213;-70
2023/01/06 02:59:24;;;;;;;3.03;0.70;;;19.90;99.90;;;;;;5091578;28;20194;-71
2023/01/06 03:01:53;;;;;;;1.10;0.63;;;19.90;99.90;;;;;;5088231;28;20266;-70
2023/01/06 03:04:28;;;;;;;3.00;0.67;;;20.40;99.90;;;;;;5072905;28;20630;-73
2023/01/06 03:07:02;;;;;;;2.20;0.60;;;20.50;99.90;;;;;;5072270;28;20191;-69
2023/01/06 03:09:33;;;;;;;3.23;0.60;;;20.70;99.90;;;;;;5073854;28;20178;-70
2023/01/06 03:12:32;;;;;;;1.60;0.60;;;20.70;99.90;;;;;;5087527;28;20758;-70
2023/01/06 03:15:00;;;;;;;4.87;0.70;;;20.60;99.90;;;;;;5057393;28;20198;-71
2023/01/06 03:17:28;;;;;;;1.37;0.53;;;20.70;99.90;;;;;;5078329;28;20552;-72
2023/01/06 03:19:56;;;;;;;2.57;0.70;;;21.00;99.90;;;;;;5087151;28;20656;-72
2023/01/06 03:22:24;;;;;;;1.67;1.03;;;20.70;99.90;;;;;;5072080;28;20270;-69
2023/01/06 03:24:53;;;;;;;2.07;0.77;;;20.30;99.90;;;;;;5087934;28;20218;-71
2023/01/06 03:27:25;;;;;;;1.10;0.67;;;20.40;99.90;;;;;;5088139;28;20259;-71
2023/01/06 03:29:54;;;;;;;1.37;0.57;;;20.40;99.90;;;;;;5072286;28;20191;-70
2023/01/06 03:32:24;;;;;;;5.20;0.73;;;20.20;99.90;;;;;;5083893;28;20230;-71
2023/01/06 03:35:09;;;;;;;4.07;1.20;;;20.00;99.90;;;;;;5079600;28;20204;-71
2023/01/06 03:38:17;;;;;;;7.27;1.00;;;20.10;99.90;;;;;;5070740;28;20390;-70
2023/01/06 03:40:59;;;;;;;4.13;1.20;;;20.40;99.90;;;;;;5034561;28;20192;-71
2023/01/06 03:43:46;;;;;;;3.20;1.10;;;19.90;99.90;;;;;;5070046;28;20192;-70
2023/01/06 03:46:49;;;;;;;3.33;1.23;;;19.70;99.90;;;;;;5072225;28;20184;-70
2023/01/06 03:49:38;;;;;;;4.23;1.00;;;19.70;99.90;;;;;;5062082;28;20219;-70
2023/01/06 03:52:40;;;;;;;3.97;1.07;;;19.70;99.90;;;;;;5072761;28;20672;-76
2023/01/06 03:55:17;;;;;;;2.50;1.03;;;19.50;99.90;;;;;;5027864;28;20194;-72
2023/01/06 03:57:51;;;;;;;5.57;1.00;;;19.50;99.90;;;;;;5070162;28;20196;-70
2023/01/06 04:00:21;;;;;;;7.87;1.63;;;19.40;99.90;;;;;;5072839;28;20182;-71
2023/01/06 04:02:49;;;;;;;4.77;1.50;;;19.20;99.90;;;;;;5080716;28;20194;-71
2023/01/06 04:05:23;;;;;;;4.97;1.40;;;19.20;99.90;;;;;;5071444;28;20542;-69
2023/01/06 04:07:51;;;;;;;8.47;1.80;;;19.20;99.90;;;;;;5075375;28;20179;-70
2023/01/06 04:10:21;;;;;;;6.50;1.30;;;19.30;99.90;;;;;;5092037;28;20200;-69
2023/01/06 04:12:49;;;;;;;6.23;1.93;;;19.20;99.90;;;;;;5085183;28;20228;-72
2023/01/06 04:15:23;;;;;;;6.77;1.20;;;19.10;99.90;;;;;;5071752;28;20176;-71
2023/01/06 04:17:51;;;;;;;6.63;1.53;;;19.10;99.90;;;;;;5077858;28;20277;-72
2023/01/06 04:20:28;;;;;;;6.23;1.30;;;19.00;99.90;;;;;;5083053;28;20183;-70
2023/01/06 04:22:57;;;;;;;4.73;1.27;;;18.90;99.90;;;;;;5084418;28;20175;-71
2023/01/06 04:25:25;;;;;;;6.47;1.67;;;18.90;99.90;;;;;;5071623;28;20645;-69
2023/01/06 04:27:54;;;;;;;5.27;2.07;;;18.80;99.90;;;;;;5071377;28;20183;-71
2023/01/06 04:30:22;;;;;;;10.57;1.90;;;18.70;99.90;;;;;;5082522;28;20176;-69
2023/01/06 04:32:50;;;;;;;11.80;1.77;;;18.60;99.90;;;;;;5070997;28;20267;-69
2023/01/06 04:35:18;;;;;;;6.67;1.87;;;18.50;99.90;;;;;;5083358;28;20183;-69
2023/01/06 04:37:45;;;;;;;10.10;1.90;;;18.40;99.90;;;;;;5091584;28;20242;-69
2023/01/06 04:40:13;;;;;;;5.53;1.80;;;18.50;99.90;;;;;;5085926;28;20247;-69
2023/01/06 04:45:26;;;;;;;5.33;1.73;;;18.40;99.90;;;;;;5091512;28;20193;-70
2023/01/06 04:47:54;;;;;;;6.83;2.20;;;18.20;99.90;;;;;;5091484;28;20640;-71
2023/01/06 04:50:22;;;;;;;9.63;1.97;;;18.30;99.90;;;;;;5089220;28;20183;-71
2023/01/06 04:52:50;;;;;;;10.20;2.20;;;18.20;99.90;;;;;;5091508;28;20192;-71
2023/01/06 04:55:18;;;;;;;8.27;2.37;;;18.20;99.90;;;;;;5091134;28;20265;-69
2023/01/06 04:57:45;;;;;;;10.07;2.57;;;18.20;99.90;;;;;;5090945;28;20218;-72
2023/01/06 05:00:14;;;;;;;9.50;2.27;;;18.20;99.90;;;;;;5089287;28;20183;-69
2023/01/06 05:02:42;;;;;;;9.53;2.40;;;18.10;99.90;;;;;;5071167;28;20648;-69
2023/01/06 05:05:10;;;;;;;10.27;2.40;;;18.00;99.90;;;;;;5082820;28;20292;-71
2023/01/06 05:07:38;;;;;;;9.40;1.97;;;18.00;99.90;;;;;;5089588;28;20194;-70
2023/01/06 05:10:08;;;;;;;13.00;2.77;;;18.10;99.90;;;;;;5090587;28;20183;-70
2023/01/06 05:12:36;;;;;;;9.67;2.10;;;18.00;99.90;;;;;;5070580;28;20252;-70
2023/01/06 05:15:04;;;;;;;11.23;2.63;;;17.90;99.90;;;;;;5071026;28;20172;-70
2023/01/06 05:17:32;;;;;;;16.40;3.03;;;18.10;99.90;;;;;;5069786;28;20223;-70
2023/01/06 05:20:00;;;;;;;12.33;2.60;;;18.00;99.90;;;;;;5089384;28;20586;-70
2023/01/06 05:22:27;;;;;;;8.83;2.80;;;18.10;99.90;;;;;;5071184;28;20179;-71
2023/01/06 05:24:55;;;;;;;11.23;2.40;;;18.20;99.90;;;;;;5070986;28;20181;-73
2023/01/06 05:27:23;;;;;;;11.20;2.87;;;18.10;99.90;;;;;;5070144;28;20176;-70
2023/01/06 05:29:51;;;;;;;11.07;3.13;;;18.20;99.90;;;;;;5070949;28;20180;-71
2023/01/06 05:32:20;;;;;;;13.27;2.47;;;18.10;99.90;;;;;;5070786;28;20277;-70
2023/01/06 05:34:48;;;;;;;11.53;2.70;;;18.20;99.90;;;;;;5070241;28;20658;-71
2023/01/06 05:37:15;;;;;;;13.43;3.33;;;18.20;99.90;;;;;;5069633;28;20208;-71
2023/01/06 05:39:43;;;;;;;11.27;2.93;;;18.20;99.90;;;;;;5070941;28;20167;-70
2023/01/06 05:42:11;;;;;;;14.53;3.23;;;18.20;99.90;;;;;;5070193;28;20211;-73
2023/01/06 05:44:39;;;;;;;11.10;2.67;;;18.20;99.90;;;;;;5071153;28;20172;-74
2023/01/06 05:47:07;;;;;;;10.97;2.70;;;18.20;99.90;;;;;;5088756;28;20657;-73
2023/01/06 05:49:35;;;;;;;10.30;2.30;;;18.30;99.90;;;;;;5092734;28;20183;-72
2023/01/06 05:52:05;;;;;;;9.90;2.60;;;18.50;99.90;;;;;;5078038;28;20179;-72
2023/01/06 05:54:33;;;;;;;8.60;2.30;;;18.60;99.90;;;;;;5084931;28;20186;-72
2023/01/06 05:57:01;;;;;;;14.77;3.17;;;18.60;99.90;;;;;;5089934;28;20326;-72
2023/01/06 05:59:29;;;;;;;13.20;3.10;;;18.70;99.90;;;;;;5094190;28;20190;-72
2023/01/06 06:01:56;;;;;;;15.17;2.13;;;18.70;99.90;;;;;;5076304;28;20187;-73
2023/01/06 06:04:24;;;;;;;15.77;2.30;;;18.70;99.90;;;;;;5077095;28;20191;-73
2023/01/06 06:06:52;;;;;;;12.33;2.67;;;18.90;99.90;;;;;;5073930;28;20176;-72
2023/01/06 06:09:20;;;;;;;12.03;2.83;;;19.30;99.90;;;;;;5073913;28;20183;-75
2023/01/06 06:11:50;;;;;;;12.93;2.47;;;19.60;99.90;;;;;;5071933;28;20255;-74
2023/01/06 06:14:18;;;;;;;11.07;2.20;;;19.50;99.90;;;;;;5083622;28;20186;-74
2023/01/06 06:16:46;;;;;;;11.10;2.10;;;19.30;99.90;;;;;;5088218;28;20186;-74
2023/01/06 06:19:14;;;;;;;11.47;2.17;;;19.10;99.90;;;;;;5090613;28;20187;-74
2023/01/06 06:21:42;;;;;;;11.43;2.50;;;19.00;99.90;;;;;;5093764;28;20244;-73
2023/01/06 06:24:10;;;;;;;11.97;1.97;;;19.00;99.90;;;;;;5084131;28;20227;-72
2023/01/06 06:26:37;;;;;;;9.37;2.30;;;18.80;99.90;;;;;;5073318;28;20270;-72
2023/01/06 06:29:06;;;;;;;9.20;2.30;;;18.90;99.90;;;;;;5088957;28;20187;-70
2023/01/06 06:31:34;;;;;;;12.07;2.60;;;18.90;99.90;;;;;;5093824;28;20183;-73
2023/01/06 06:34:03;;;;;;;11.30;2.27;;;19.00;99.90;;;;;;5092702;28;20192;-73
2023/01/06 06:36:31;;;;;;;7.50;2.00;;;19.20;99.90;;;;;;5093718;28;20171;-72
2023/01/06 06:38:59;;;;;;;11.03;3.00;;;19.30;99.90;;;;;;5078745;28;20270;-72
2023/01/06 06:41:27;;;;;;;7.03;1.70;;;19.10;99.90;;;;;;5072915;28;20176;-74
2023/01/06 06:43:55;;;;;;;7.20;1.60;;;19.00;99.90;;;;;;5075557;28;20183;-73
2023/01/06 06:46:23;;;;;;;10.10;2.00;;;18.70;99.90;;;;;;5093656;28;20175;-73
2023/01/06 06:48:51;;;;;;;7.60;1.57;;;18.80;99.90;;;;;;5079492;28;20184;-72
2023/01/06 06:51:21;;;;;;;7.67;1.80;;;18.50;99.90;;;;;;5076483;28;20171;-73
2023/01/06 06:53:52;;;;;;;9.03;1.50;;;18.50;99.90;;;;;;5093322;28;20236;-73
2023/01/06 06:56:21;;;;;;;6.33;1.37;;;18.40;99.90;;;;;;5092158;28;20171;-74
2023/01/06 06:58:49;;;;;;;5.00;1.37;;;18.30;99.90;;;;;;5080312;28;20254;-73
2023/01/06 07:01:19;;;;;;;6.27;1.33;;;18.30;99.90;;;;;;5072767;28;20187;-72
2023/01/06 07:03:48;;;;;;;4.77;1.50;;;18.30;99.90;;;;;;5072507;28;20176;-73
2023/01/06 07:06:27;;;;;;;3.50;1.30;;;18.30;99.90;;;;;;5072942;28;20184;-73
2023/01/06 07:08:55;;;;;;;7.93;1.23;;;18.30;99.90;;;;;;5085559;28;20183;-73
2023/01/06 07:11:23;;;;;;;4.07;1.10;;;18.40;99.90;;;;;;5092829;28;20700;-73
2023/01/06 07:13:50;;;;;;;6.60;1.40;;;18.40;99.90;;;;;;5093009;28;20183;-72
2023/01/06 07:16:21;;;;;;;6.70;1.80;;;18.40;99.90;;;;;;5092206;28;20187;-73
2023/01/06 07:18:49;;;;;;;5.30;1.77;;;18.50;99.90;;;;;;5092157;28;20353;-73
2023/01/06 07:21:17;;;;;;;6.07;1.00;;;18.50;99.90;;;;;;5092692;28;20167;-73
2023/01/06 07:23:45;;;;;;;5.33;1.77;;;18.50;99.90;;;;;;5089217;28;20183;-72
2023/01/06 07:26:14;;;;;;;4.33;1.10;;;18.50;99.90;;;;;;5091442;28;20272;-74
2023/01/06 07:28:42;;;;;;;9.57;1.60;;;18.50;99.90;;;;;;5091769;28;20186;-73
2023/01/06 07:31:10;;;;;;;5.80;1.40;;;18.50;99.90;;;;;;5092203;28;20643;-73
2023/01/06 07:33:38;;;;;;;4.37;1.53;;;18.50;99.90;;;;;;5090667;28;20315;-73
2023/01/06 07:36:06;;;;;;;6.47;1.40;;;18.50;99.90;;;;;;5072368;28;20189;-73
2023/01/06 07:38:33;;;;;;;4.20;1.40;;;18.50;99.90;;;;;;5080969;28;20218;-76
2023/01/06 07:41:01;;;;;;;7.07;2.03;;;18.50;99.90;;;;;;5092068;28;20270;-73
2023/01/06 07:43:29;;;;;;;5.83;1.63;;;18.50;99.90;;;;;;5093648;28;20180;-75
2023/01/06 07:45:57;;;;;;;10.77;2.13;;;18.50;99.90;;;;;;5097810;28;20190;-74
2023/01/06 07:48:25;;;;;;;10.80;1.80;;;18.50;99.90;;;;;;5087338;28;20191;-76
2023/01/06 07:50:53;;;;;;;6.90;1.70;;;18.40;99.90;;;;;;5072967;28;20179;-75
2023/01/06 07:53:21;;;;;;;8.40;2.23;;;18.40;99.90;;;;;;5073274;28;20182;-74
2023/01/06 07:55:55;;;;;;;5.97;1.33;;;18.40;99.90;;;;;;5072171;28;20182;-74
2023/01/06 07:58:23;;;;;;;4.83;1.37;;;18.40;99.90;;;;;;5076524;28;20298;-74
2023/01/06 08:00:51;;;;;;;7.70;2.17;;;18.40;99.90;;;;;;5073837;28;20263;-73
2023/01/06 08:03:19;;;;;;;9.53;1.77;;;18.30;99.90;;;;;;5073286;28;20203;-74
2023/01/06 08:05:47;;;;;;;8.90;1.60;;;18.20;99.90;;;;;;5071644;28;20222;-72
2023/01/06 08:08:14;;;;;;;6.70;1.50;;;18.20;99.90;;;;;;5070462;28;20547;-73
2023/01/06 08:10:43;;;;;;;4.33;1.70;;;18.20;99.90;;;;;;5071717;28;20259;-73
2023/01/06 08:13:11;;;;;;;8.50;2.00;;;18.20;99.90;;;;;;5071548;28;20254;-74
2023/01/06 08:15:39;;;;;;;8.67;2.07;;;18.20;99.90;;;;;;5071303;28;20209;-73
2023/01/06 08:18:07;;;;;;;8.37;1.73;;;18.20;99.90;;;;;;5071443;28;20207;-73
2023/01/06 08:20:35;;;;;;;5.67;1.53;;;18.20;99.90;;;;;;5070283;28;20550;-72
2023/01/06 08:23:03;;;;;;;10.07;1.90;;;18.20;99.90;;;;;;5071223;28;20293;-73
2023/01/06 08:25:31;;;;;;;5.73;1.50;;;18.20;99.90;;;;;;5071687;28;20176;-74
2023/01/06 08:27:59;;;;;;;4.50;1.70;;;18.20;99.90;;;;;;5071585;28;20652;-72
2023/01/06 08:30:27;;;;;;;6.20;2.03;;;18.10;99.90;;;;;;5070974;28;20262;-71
2023/01/06 08:32:59;;;;;;;9.50;2.10;;;18.10;99.90;;;;;;5071447;28;20622;-72
2023/01/06 08:35:27;;;;;;;10.03;2.50;;;18.10;99.90;;;;;;5071287;28;20172;-72
2023/01/06 08:37:55;;;;;;;7.83;2.13;;;18.00;99.90;;;;;;5070783;28;20251;-72
2023/01/06 08:40:23;;;;;;;6.70;1.70;;;18.00;99.90;;;;;;5071214;28;20645;-71
2023/01/06 08:42:51;;;;;;;9.33;2.20;;;18.00;99.90;;;;;;5071161;28;20251;-71
2023/01/06 08:45:19;;;;;;;7.90;1.83;;;18.00;99.90;;;;;;5070549;28;20199;-75
2023/01/06 08:47:47;;;;;;;6.93;1.90;;;18.00;99.90;;;;;;5073735;28;20241;-73
2023/01/06 08:50:14;;;;;;;11.40;1.90;;;18.00;99.90;;;;;;5088691;28;20187;-72
2023/01/06 08:52:42;;;;;;;12.73;2.23;;;18.00;99.90;;;;;;5078646;28;20186;-72
2023/01/06 08:55:11;;;;;;;9.00;2.07;;;17.90;99.90;;;;;;5088900;28;20183;-72
2023/01/06 08:57:39;;;;;;;9.00;1.90;;;17.90;99.90;;;;;;5078949;28;20582;-70
2023/01/06 09:00:08;;;;;;;12.03;2.10;;;17.90;99.90;;;;;;5090082;28;20662;-73
2023/01/06 09:02:36;;;;;;;9.60;2.63;;;17.90;99.90;;;;;;5077536;28;20192;-72
2023/01/06 09:05:04;;;;;;;10.97;1.57;;;17.90;99.90;;;;;;5071151;28;20222;-73
2023/01/06 09:07:32;;;;;;;12.17;2.30;;;17.90;99.90;;;;;;5076625;28;20577;-73
2023/01/06 09:10:00;;;;;;;8.73;1.73;;;17.90;99.90;;;;;;5090774;28;20669;-72
2023/01/06 09:12:27;;;;;;;9.07;1.93;;;17.90;99.90;;;;;;5090926;28;20230;-72
2023/01/06 09:14:55;;;;;;;12.97;2.10;;;17.90;99.90;;;;;;5090886;28;20283;-72
2023/01/06 09:17:23;;;;;;;10.30;2.00;;;17.80;99.90;;;;;;5091051;28;20260;-72
2023/01/06 09:19:51;;;;;;;17.53;5.10;;;17.80;99.90;;;;;;5083260;28;20191;-72
2023/01/06 09:22:18;;;;;;;13.87;2.87;;;17.80;99.90;;;;;;5074362;28;20581;-72
2023/01/06 09:24:46;;;;;;;10.80;2.03;;;17.90;99.90;;;;;;5074800;28;20211;-72
2023/01/06 09:27:14;;;;;;;11.00;1.97;;;17.80;99.90;;;;;;5088843;28;20226;-72
2023/01/06 09:29:42;;;;;;;7.67;1.87;;;17.90;99.90;;;;;;5085552;28;20184;-72
2023/01/06 09:32:10;;;;;;;11.97;2.23;;;17.80;99.90;;;;;;5074699;28;20227;-72
2023/01/06 09:34:38;;;;;;;12.90;2.30;;;17.80;99.90;;;;;;5079721;28;20860;-72
2023/01/06 09:37:06;;;;;;;14.23;2.17;;;17.80;99.90;;;;;;5094158;28;20230;-72
2023/01/06 09:39:35;;;;;;;9.80;2.20;;;17.90;99.90;;;;;;5087312;28;20313;-72
2023/01/06 09:42:19;;;;;;;7.40;1.87;;;17.90;99.90;;;;;;5074359;28;20222;-72
2023/01/06 09:44:53;;;;;;;9.70;2.07;;;17.90;99.90;;;;;;5088741;28;20186;-71
2023/01/06 09:47:27;;;;;;;8.73;2.13;;;17.90;99.90;;;;;;5094781;28;20245;-73
2023/01/06 09:50:09;;;;;;;13.33;2.77;;;17.90;99.90;;;;;;5084658;28;20274;-73
2023/01/06 09:52:48;;;;;;;6.93;2.10;;;17.80;99.90;;;;;;5089560;28;21037;-73
2023/01/06 09:55:30;;;;;;;10.57;2.20;;;17.90;99.90;;;;;;5094870;28;20197;-73
2023/01/06 09:58:04;;;;;;;13.87;2.20;;;17.90;99.90;;;;;;5094891;28;20660;-72
2023/01/06 10:00:38;;;;;;;8.50;2.10;;;17.80;99.90;;;;;;5084905;28;20273;-68
2023/01/06 10:03:11;;;;;;;11.43;2.50;;;17.80;99.90;;;;;;5082114;28;20175;-72
2023/01/06 10:06:02;;;;;;;11.33;2.13;;;17.90;99.90;;;;;;5093725;28;20179;-71
2023/01/06 10:08:48;;;;;;;16.70;2.10;;;17.90;99.90;;;;;;5095015;28;20182;-70
2023/01/06 10:11:30;;;;;;;11.10;2.17;;;17.80;99.90;;;;;;5095512;28;20179;-71
2023/01/06 10:14:07;;;;;;;9.67;1.90;;;17.80;99.90;;;;;;5095536;28;20167;-70
2023/01/06 10:17:25;;;;;;;14.77;2.73;;;17.90;99.90;;;;;;5075719;28;20199;-71
2023/01/06 10:19:57;;;;;;;8.93;1.80;;;17.90;99.90;;;;;;4993684;28;20198;-71
2023/01/06 10:22:31;;;;;;;12.40;2.83;;;17.90;99.90;;;;;;4993683;28;20179;-72
2023/01/06 10:25:21;;;;;;;13.37;2.10;;;17.90;99.90;;;;;;5039617;28;20200;-71
2023/01/06 10:28:08;;;;;;;13.20;2.60;;;17.90;99.90;;;;;;5074904;28;20208;-72
2023/01/06 10:30:45;;;;;;;7.57;2.23;;;17.90;99.90;;;;;;5074323;28;20633;-71
2023/01/06 10:33:37;;;;;;;10.87;2.33;;;17.90;99.90;;;;;;5075388;28;20229;-71
2023/01/06 10:36:13;;;;;;;11.00;2.40;;;17.90;99.90;;;;;;5075335;28;20238;-67
2023/01/06 10:38:50;;;;;;;14.47;2.83;;;17.90;99.90;;;;;;5074651;28;20633;-70
2023/01/06 10:41:48;;;;;;;12.83;2.53;;;17.80;99.90;;;;;;5075291;28;20171;-69
2023/01/06 10:44:18;;;;;;;6.43;1.90;;;17.80;99.90;;;;;;5075222;28;20211;-71
2023/01/06 10:46:48;;;;;;;12.90;2.50;;;17.70;99.90;;;;;;5074555;28;20179;-71
2023/01/06 10:49:21;;;;;;;8.27;2.20;;;17.70;99.90;;;;;;5074674;28;20266;-71
2023/01/06 10:52:01;;;;;;;8.83;2.03;;;17.60;99.90;;;;;;5074713;28;20187;-68
2023/01/06 10:54:35;;;;;;;11.63;2.43;;;17.60;99.90;;;;;;5074693;28;20186;-71
2023/01/06 10:57:19;;;;;;;13.30;2.43;;;17.60;99.90;;;;;;5074367;28;20260;-71
2023/01/06 11:00:09;;;;;;;13.97;3.27;;;17.50;99.90;;;;;;5074295;28;20179;-70
2023/01/06 11:02:37;;;;;;;10.37;2.73;;;17.60;99.90;;;;;;5074165;28;20168;-69
2023/01/06 11:05:05;;;;;;;12.20;2.77;;;17.60;99.90;;;;;;5074137;28;20286;-70
2023/01/06 11:07:33;;;;;;;15.43;2.50;;;17.70;99.90;;;;;;5074125;28;20175;-72
2023/01/06 11:10:12;;;;;;;15.43;2.57;;;17.70;99.90;;;;;;5074240;28;20175;-69
2023/01/06 11:12:45;;;;;;;14.80;2.77;;;17.60;99.90;;;;;;5073677;28;20227;-68
2023/01/06 11:15:21;;;;;;;17.30;2.80;;;17.70;99.90;;;;;;5074091;28;20233;-68
2023/01/06 11:17:49;;;;;;;14.13;2.37;;;17.70;99.90;;;;;;5073937;28;20211;-69
2023/01/06 11:20:17;;;;;;;12.30;2.70;;;17.70;99.90;;;;;;5074083;28;20597;-68
2023/01/06 11:22:45;;;;;;;12.90;2.70;;;17.80;99.90;;;;;;5074055;28;20225;-68
2023/01/06 11:25:32;;;;;;;10.83;2.20;;;17.80;99.90;;;;;;5073838;28;20192;-69
2023/01/06 11:28:18;;;;;;;13.67;3.23;;;17.80;99.90;;;;;;5073966;28;20213;-69
2023/01/06 11:30:53;;;;;;;14.30;2.67;;;17.70;99.90;;;;;;5093035;28;20191;-69
2023/01/06 11:33:25;;;;;;;12.97;2.70;;;17.70;99.90;;;;;;5093903;28;20183;-68
2023/01/06 11:35:54;;;;;;;12.40;2.67;;;17.70;99.90;;;;;;5094170;28;20216;-69
2023/01/06 11:38:22;;;;;;;12.90;2.90;;;17.70;99.90;;;;;;5093911;28;20199;-69
2023/01/06 11:40:52;;;;;;;13.87;3.10;;;17.70;99.90;;;;;;5074513;28;20178;-68
2023/01/06 11:43:32;;;;;;;18.60;2.73;;;17.70;99.90;;;;;;5074664;28;20182;-69
2023/01/06 11:46:04;;;;;;;11.30;2.10;;;17.70;99.90;;;;;;5087919;28;20603;-68
2023/01/06 11:48:47;;;;;;;11.10;2.20;;;17.80;99.90;;;;;;5094048;28;20186;-69
2023/01/06 11:51:30;;;;;;;15.67;2.63;;;17.80;99.90;;;;;;5073852;28;20179;-70
2023/01/06 11:54:00;;;;;;;11.03;2.80;;;17.70;99.90;;;;;;5073609;28;20178;-70
2023/01/06 11:56:28;;;;;;;10.83;2.43;;;17.70;99.90;;;;;;5072981;28;20179;-71
2023/01/06 11:59:14;;;;;;;12.73;2.33;;;17.70;99.90;;;;;;5075681;28;20207;-71
2023/01/06 12:01:50;;;;;;;12.07;2.37;;;17.70;99.90;;;;;;5093559;28;20601;-70
2023/01/06 12:04:42;;;;;;;12.03;2.27;;;17.70;99.90;;;;;;5093376;28;20636;-71
2023/01/06 12:07:29;;;;;;;9.13;2.40;;;17.60;99.90;;;;;;5093445;28;20281;-71
2023/01/06 12:10:03;;;;;;;9.83;2.63;;;17.60;99.90;;;;;;5082011;28;20180;-72
2023/01/06 12:12:31;;;;;;;12.90;3.17;;;17.60;99.90;;;;;;5081701;28;20291;-72
2023/01/06 12:14:59;;;;;;;11.73;2.87;;;17.60;99.90;;;;;;5093443;28;20171;-70
2023/01/06 12:17:31;;;;;;;10.17;3.43;;;17.60;99.90;;;;;;5084180;28;20750;-70
2023/01/06 12:20:16;;;;;;;12.40;3.10;;;17.60;99.90;;;;;;5083837;28;20223;-69
2023/01/06 12:23:00;;;;;;;12.70;2.73;;;17.50;99.90;;;;;;5091942;28;20184;-70
2023/01/06 12:25:37;;;;;;;17.83;2.83;;;17.50;99.90;;;;;;5093323;28;20174;-71
2023/01/06 12:28:30;;;;;;;13.17;2.93;;;17.40;99.90;;;;;;5093111;28;20216;-71
2023/01/06 12:31:01;;;;;;;14.10;2.40;;;17.40;99.90;;;;;;5074187;28;20180;-71
2023/01/06 12:33:47;;;;;;;9.17;2.20;;;17.40;99.90;;;;;;5073246;28;20176;-72
2023/01/06 12:36:45;;;;;;;15.57;3.20;;;17.40;99.90;;;;;;5071623;28;20172;-71
2023/01/06 12:39:14;;;;;;;8.77;2.43;;;17.40;99.90;;;;;;5052073;28;20238;-72
2023/01/06 12:42:07;;;;;;;13.50;2.77;;;17.40;99.90;;;;;;5092979;28;20750;-73
2023/01/06 12:44:51;;;;;;;10.63;2.57;;;17.40;99.90;;;;;;5093349;28;20266;-71
2023/01/06 12:47:25;;;;;;;14.43;3.40;;;17.40;99.90;;;;;;5093027;28;20171;-72
2023/01/06 12:50:01;;;;;;;7.50;2.40;;;17.40;99.90;;;;;;5082955;28;20270;-72
2023/01/06 12:52:45;;;;;;;11.13;2.70;;;17.40;99.90;;;;;;5072932;28;20577;-72
2023/01/06 12:55:19;;;;;;;15.40;2.30;;;17.40;99.90;;;;;;5075659;28;20222;-71
2023/01/06 12:58:34;;;;;;;11.10;2.40;;;17.40;99.90;;;;;;5076656;28;20214;-70
2023/01/06 13:01:37;;;;;;;13.97;2.90;;;17.40;99.90;;;;;;4995756;28;20707;-73
2023/01/06 13:04:32;;;;;;;13.73;3.17;;;17.40;99.90;;;;;;5077224;28;20186;-73
2023/01/06 13:07:31;;;;;;;10.97;2.20;;;17.30;99.90;;;;;;5083533;28;20670;-71
2023/01/06 13:10:33;;;;;;;12.33;2.40;;;17.40;99.90;;;;;;5088807;28;20215;-71
2023/01/06 13:13:13;;;;;;;11.07;2.70;;;17.40;99.90;;;;;;5036698;28;20594;-71
2023/01/06 13:15:43;;;;;;;12.63;2.53;;;17.40;99.90;;;;;;5097395;28;20213;-71
2023/01/06 13:18:35;;;;;;;11.03;2.73;;;17.40;99.90;;;;;;5096666;28;20275;-71
2023/01/06 13:21:13;;;;;;;12.63;2.67;;;17.40;99.90;;;;;;5079551;28;20203;-71
2023/01/06 13:24:07;;;;;;;10.50;2.87;;;17.50;99.90;;;;;;5076488;28;20175;-71